KRDM/RDM METAR and TAF weather

Enter ICAO airport designator
Station Type Date Time Source
KRDM METAR 2019/12/08 00:56 UTC NOAA

KRDM 080056Z 17006KT 10SM -RA BKN050 OVC070 07/03 A2971 RMK AO2 RAB08 SLP065 P0001 T00720028


Station Type Date Time Source
KRDM Decoded METAR 2019/12/08 00:56 UTC NOAA

REDMOND ROBERTS FIELD, OR, United States (KRDM) 44-15N 121-08W
Dec 07, 2019 - 07:56 PM EST / 2019.12.08 0056 UTC
Wind: from the S (170 degrees) at 7 MPH (6 KT):0
Visibility: 10 mile(s):0
Sky conditions: overcast
Weather: light rain
Precipitation last hour: 0.01 inches
Temperature: 45.0 F (7.2 C)
Dew Point: 37.0 F (2.8 C)
Relative Humidity: 73%
Pressure (altimeter): 29.71 in. Hg (1006 hPa)
ob: KRDM 080056Z 17006KT 10SM -RA BKN050 OVC070 07/03 A2971 RMK AO2 RAB08 SLP065 P0001 T00720028
cycle: 1

Station Type Date Time Source
KRDM TAF 2019/12/07 18:24 UTC NOAA

TAF KRDM 071720Z 0718/0818 18006KT P6SM -RA SCT025 BKN035 OVC050
FM072300 19009KT 6SM -RA BR OVC025
FM080300 17005KT 5SM -SHRA BR OVC007
FM080600 VRB03KT 2SM BR OVC007
FM081500 VRB02KT 6SM BR OVC015

Example: see airport list